Terminal Aerodrome Forecast
Issued by NWS

Home | Current Version | Previous Version | Graphics & Text | Print | Product List | Glossary Off
Versions: 1 2 3 4 5 6 7 8 9 10 11 12 13 14 15 16 17

000
FTUS43 KIWX 211700
TAFSBN
TAF
KSBN 211721Z 2118/2218 30018G26KT P6SM BKN025 BKN040
      TEMPO 2118/2122 4SM -SHRA BR
     FM212300 32011KT P6SM SCT025 BKN040
     FM220300 34005KT P6SM SCT040=

USA.gov is the U.S. government's official web portal to all federal, state and local government web resources and services.